createdAt,value
2018-04-16T00:00:18.173Z,14.58
2018-04-16T00:01:18.169Z,14.61
2018-04-16T00:02:18.139Z,14.63
2018-04-16T00:03:18.122Z,14.59
2018-04-16T00:04:18.107Z,14.53
2018-04-16T00:05:18.091Z,14.56
2018-04-16T00:06:18.075Z,14.62
2018-04-16T00:07:18.061Z,14.53
2018-04-16T00:08:18.047Z,14.53
2018-04-16T00:09:18.034Z,14.62
2018-04-16T00:10:18.016Z,14.55
2018-04-16T00:11:18.001Z,14.58
2018-04-16T00:12:17.997Z,14.67
2018-04-16T00:13:17.970Z,14.58
2018-04-16T00:14:17.954Z,14.58
2018-04-16T00:15:17.993Z,14.66
2018-04-16T00:16:17.931Z,14.58
2018-04-16T00:17:17.903Z,14.52
2018-04-16T00:18:17.891Z,14.56
2018-04-16T00:19:17.880Z,14.48
2018-04-16T00:20:17.870Z,14.52
2018-04-16T00:21:17.841Z,14.53
2018-04-16T00:22:17.835Z,14.51
2018-04-16T00:23:17.814Z,14.48
2018-04-16T00:24:17.802Z,14.53
2018-04-16T00:25:17.780Z,14.43
2018-04-16T00:26:17.767Z,14.44
2018-04-16T00:27:17.756Z,14.45
2018-04-16T00:28:17.738Z,14.45
2018-04-16T00:29:17.717Z,14.36
2018-04-16T00:30:17.702Z,14.36
2018-04-16T00:31:17.779Z,14.33
2018-04-16T00:32:17.679Z,14.31
2018-04-16T00:33:17.655Z,14.36
2018-04-16T00:34:17.646Z,14.30
2018-04-16T00:35:17.625Z,14.19
2018-04-16T00:36:17.610Z,14.22
2018-04-16T00:37:17.596Z,14.23
2018-04-16T00:38:17.578Z,14.20
2018-04-16T00:39:17.565Z,14.22
2018-04-16T00:40:17.548Z,14.20
2018-04-16T00:41:17.530Z,14.18
2018-04-16T00:42:17.516Z,14.22
2018-04-16T00:43:17.499Z,14.20
2018-04-16T00:44:17.486Z,14.23
2018-04-16T00:45:17.467Z,14.16
2018-04-16T00:46:17.454Z,14.15
2018-04-16T00:47:17.439Z,14.13
2018-04-16T00:48:17.429Z,14.15
2018-04-16T00:49:17.407Z,14.13
2018-04-16T00:50:17.390Z,14.05
2018-04-16T00:51:17.374Z,14.04
2018-04-16T00:52:17.375Z,14.07
2018-04-16T00:53:17.344Z,14.07
2018-04-16T00:54:17.336Z,14.05
2018-04-16T00:55:17.329Z,14.11
2018-04-16T00:56:17.304Z,13.97
2018-04-16T00:57:17.277Z,13.97
2018-04-16T00:58:17.263Z,14.00
2018-04-16T00:59:17.250Z,14.01
2018-04-16T01:00:17.233Z,14.01
2018-04-16T01:01:17.223Z,13.98
2018-04-16T01:02:17.203Z,13.98
2018-04-16T01:03:17.188Z,13.97
2018-04-16T01:04:17.174Z,14.04
2018-04-16T01:05:17.155Z,13.97
2018-04-16T01:06:17.139Z,14.00
2018-04-16T01:07:17.140Z,14.03
2018-04-16T01:08:17.111Z,13.97
2018-04-16T01:09:17.093Z,13.91
2018-04-16T01:10:17.074Z,13.91
2018-04-16T01:11:17.082Z,14.01
2018-04-16T01:12:17.040Z,14.01
2018-04-16T01:13:17.026Z,13.97
2018-04-16T01:14:17.018Z,14.04
2018-04-16T01:15:16.993Z,14.01
2018-04-16T01:16:16.983Z,13.95
2018-04-16T01:17:16.963Z,13.95
2018-04-16T01:18:16.951Z,13.95
2018-04-16T01:19:16.934Z,13.94
2018-04-16T01:20:16.914Z,13.97
2018-04-16T01:21:16.915Z,13.95
2018-04-16T01:22:16.887Z,14.03
2018-04-16T01:23:16.870Z,13.98
2018-04-16T01:24:16.853Z,14.01
2018-04-16T01:25:16.836Z,13.95
2018-04-16T01:26:16.821Z,13.98
2018-04-16T01:27:16.816Z,13.91
2018-04-16T01:28:16.793Z,13.98
2018-04-16T01:29:16.779Z,14.04
2018-04-16T01:30:16.760Z,14.05
2018-04-16T01:31:16.739Z,13.97
2018-04-16T01:32:16.730Z,14.01
2018-04-16T01:33:16.711Z,13.98
2018-04-16T01:34:16.692Z,14.00
2018-04-16T01:35:16.681Z,13.98
2018-04-16T01:36:16.662Z,14.03
2018-04-16T01:37:16.649Z,13.95
2018-04-16T01:38:16.632Z,13.94
2018-04-16T01:39:16.615Z,13.87
2018-04-16T01:40:16.609Z,13.82
2018-04-16T01:41:16.585Z,13.82
2018-04-16T01:42:16.565Z,13.80
2018-04-16T01:43:16.554Z,13.91
2018-04-16T01:44:16.535Z,14.00
2018-04-16T01:45:16.520Z,13.95
2018-04-16T01:46:16.501Z,13.94
2018-04-16T01:47:16.488Z,14.00
2018-04-16T01:48:16.472Z,14.04
2018-04-16T01:49:16.455Z,14.04
2018-04-16T01:50:16.439Z,14.03
2018-04-16T01:51:16.519Z,14.04
2018-04-16T01:52:16.409Z,14.08
2018-04-16T01:53:16.391Z,14.08
2018-04-16T01:54:16.375Z,14.08
2018-04-16T01:55:16.368Z,14.04
2018-04-16T01:56:16.344Z,14.01
2018-04-16T01:57:16.329Z,14.01
2018-04-16T01:58:16.310Z,13.95
2018-04-16T01:59:16.292Z,14.04
2018-04-16T02:00:16.278Z,14.01
2018-04-16T02:01:16.261Z,14.00
2018-04-16T02:02:16.248Z,13.98
2018-04-16T02:03:16.229Z,14.00
2018-04-16T02:04:16.225Z,14.03
2018-04-16T02:05:16.200Z,13.91
2018-04-16T02:06:16.180Z,14.00
2018-04-16T02:07:16.168Z,13.87
2018-04-16T02:08:16.149Z,13.91
2018-04-16T02:09:16.131Z,14.00
2018-04-16T02:10:16.234Z,13.97
2018-04-16T02:11:16.103Z,14.00
2018-04-16T02:12:16.086Z,13.97
2018-04-16T02:13:16.068Z,14.04
2018-04-16T02:14:16.051Z,13.97
2018-04-16T02:15:16.041Z,14.01
2018-04-16T02:16:16.016Z,13.89
2018-04-16T02:17:16.004Z,13.86
2018-04-16T02:18:15.984Z,13.93
2018-04-16T02:19:15.970Z,13.93
2018-04-16T02:20:15.952Z,13.93
2018-04-16T02:21:15.940Z,13.87
2018-04-16T02:22:15.922Z,13.87
2018-04-16T02:23:15.904Z,13.91
2018-04-16T02:24:15.887Z,13.79
2018-04-16T02:25:15.873Z,13.85
2018-04-16T02:26:15.855Z,13.83
2018-04-16T02:27:15.838Z,13.83
2018-04-16T02:28:15.833Z,13.71
2018-04-16T02:29:15.924Z,13.78
2018-04-16T02:30:15.793Z,13.65
2018-04-16T02:31:15.778Z,13.58
2018-04-16T02:32:15.762Z,13.65
2018-04-16T02:33:15.741Z,13.62
2018-04-16T02:34:15.725Z,13.64
2018-04-16T02:35:15.714Z,13.64
2018-04-16T02:36:15.696Z,13.57
2018-04-16T02:37:15.695Z,13.58
2018-04-16T02:38:15.661Z,13.61
2018-04-16T02:39:15.655Z,13.60
2018-04-16T02:40:15.632Z,13.58
2018-04-16T02:41:15.612Z,13.58
2018-04-16T02:42:15.595Z,13.55
2018-04-16T02:43:15.591Z,13.65
2018-04-16T02:44:15.563Z,13.61
2018-04-16T02:45:15.546Z,13.65
2018-04-16T02:46:15.531Z,13.64
2018-04-16T02:47:15.513Z,13.61
2018-04-16T02:48:15.501Z,13.62
2018-04-16T02:49:15.482Z,13.62
2018-04-16T02:50:15.462Z,13.58
2018-04-16T02:51:15.449Z,13.58
2018-04-16T02:52:15.433Z,13.52
2018-04-16T02:53:15.416Z,13.64
2018-04-16T02:54:15.400Z,13.57
2018-04-16T02:55:15.422Z,13.61
2018-04-16T02:56:15.444Z,13.60
2018-04-16T02:57:15.351Z,13.58
2018-04-16T02:58:15.333Z,13.50
2018-04-16T02:59:15.355Z,13.61
2018-04-16T03:00:15.300Z,13.57
2018-04-16T03:01:15.285Z,13.58
2018-04-16T03:02:15.271Z,13.60
2018-04-16T03:03:15.250Z,13.58
2018-04-16T03:04:15.237Z,13.57
2018-04-16T03:05:15.240Z,13.47
2018-04-16T03:06:15.212Z,13.47
2018-04-16T03:07:15.193Z,13.43
2018-04-16T03:08:15.169Z,13.46
2018-04-16T03:09:15.155Z,13.40
2018-04-16T03:10:15.137Z,13.45
2018-04-16T03:11:15.121Z,13.43
2018-04-16T03:12:15.104Z,13.43
2018-04-16T03:13:15.089Z,13.42
2018-04-16T03:14:15.074Z,13.31
2018-04-16T03:15:15.064Z,13.31
2018-04-16T03:16:15.039Z,13.40
2018-04-16T03:17:15.021Z,13.37
2018-04-16T03:18:15.009Z,13.45
2018-04-16T03:19:14.992Z,13.43
2018-04-16T03:20:14.973Z,13.50
2018-04-16T03:21:14.960Z,13.36
2018-04-16T03:22:14.941Z,13.46
2018-04-16T03:23:14.929Z,13.43
2018-04-16T03:24:14.909Z,13.47
2018-04-16T03:25:14.890Z,13.45
2018-04-16T03:26:14.878Z,13.45
2018-04-16T03:27:14.859Z,13.47
2018-04-16T03:28:14.840Z,13.42
2018-04-16T03:29:14.828Z,13.40
2018-04-16T03:30:14.808Z,13.31
2018-04-16T03:31:14.795Z,13.40
2018-04-16T03:32:14.781Z,13.40
2018-04-16T03:33:14.771Z,13.37
2018-04-16T03:34:14.742Z,13.28
2018-04-16T03:35:14.728Z,13.37
2018-04-16T03:36:14.710Z,13.36
2018-04-16T03:37:14.690Z,13.26
2018-04-16T03:38:14.677Z,13.21
2018-04-16T03:39:14.660Z,13.11
2018-04-16T03:40:14.642Z,13.09
2018-04-16T03:41:14.626Z,13.11
2018-04-16T03:42:14.624Z,13.11
2018-04-16T03:43:14.597Z,13.12
2018-04-16T03:44:14.587Z,13.09
2018-04-16T03:45:14.613Z,13.05
2018-04-16T03:46:14.542Z,13.03
2018-04-16T03:47:14.527Z,12.99
2018-04-16T03:48:14.509Z,13.05
2018-04-16T03:49:14.493Z,12.95
2018-04-16T03:50:14.476Z,12.95
2018-04-16T03:51:14.461Z,12.86
2018-04-16T03:52:14.441Z,12.90
2018-04-16T03:53:14.426Z,12.88
2018-04-16T03:54:14.408Z,12.93
2018-04-16T03:55:14.434Z,12.90
2018-04-16T03:56:14.375Z,12.90
2018-04-16T03:57:14.356Z,12.80
2018-04-16T03:58:14.339Z,12.87
2018-04-16T03:59:14.325Z,12.87
2018-04-16T04:00:14.307Z,12.84
2018-04-16T04:01:14.444Z,12.83
2018-04-16T04:02:14.283Z,12.83
2018-04-16T04:03:14.256Z,12.84
2018-04-16T04:04:14.295Z,12.84
2018-04-16T04:05:14.224Z,12.86
2018-04-16T04:06:14.206Z,12.86
2018-04-16T04:07:14.188Z,12.84
2018-04-16T04:08:14.181Z,12.80
2018-04-16T04:09:14.243Z,12.76
2018-04-16T04:10:14.146Z,12.78
2018-04-16T04:11:14.123Z,12.73
2018-04-16T04:12:14.105Z,12.73
2018-04-16T04:13:14.089Z,12.80
2018-04-16T04:14:14.081Z,12.73
2018-04-16T04:15:14.053Z,12.76
2018-04-16T04:16:14.038Z,12.73
2018-04-16T04:17:14.022Z,12.73
2018-04-16T04:18:14.005Z,12.68
2018-04-16T04:19:13.985Z,12.80
2018-04-16T04:20:13.973Z,12.76
2018-04-16T04:21:13.952Z,12.69
2018-04-16T04:22:13.935Z,12.63
2018-04-16T04:23:13.923Z,12.72
2018-04-16T04:24:13.902Z,12.57
2018-04-16T04:25:13.909Z,12.55
2018-04-16T04:26:13.866Z,12.73
2018-04-16T04:27:13.851Z,12.69
2018-04-16T04:28:13.904Z,12.73
2018-04-16T04:29:13.815Z,12.73
2018-04-16T04:30:13.801Z,12.76
2018-04-16T04:31:13.783Z,12.70
2018-04-16T04:32:13.769Z,12.80
2018-04-16T04:33:13.752Z,12.76
2018-04-16T04:34:13.732Z,12.75
2018-04-16T04:35:13.716Z,12.80
2018-04-16T04:36:13.703Z,12.78
2018-04-16T04:37:13.682Z,12.75
2018-04-16T04:38:13.661Z,12.73
2018-04-16T04:39:13.645Z,12.86
2018-04-16T04:40:13.635Z,12.84
2018-04-16T04:41:13.626Z,12.86
2018-04-16T04:42:13.598Z,12.87
2018-04-16T04:43:13.584Z,12.86
2018-04-16T04:44:13.577Z,12.83
2018-04-16T04:45:13.550Z,12.88
2018-04-16T04:46:13.525Z,12.86
2018-04-16T04:47:13.510Z,12.84
2018-04-16T04:48:13.491Z,12.88
2018-04-16T04:49:13.482Z,12.93
2018-04-16T04:50:13.460Z,12.87
2018-04-16T04:51:13.451Z,12.99
2018-04-16T04:52:13.424Z,12.93
2018-04-16T04:53:13.405Z,12.91
2018-04-16T04:54:13.390Z,12.94
2018-04-16T04:55:13.371Z,12.95
2018-04-16T04:56:13.358Z,12.95
2018-04-16T04:57:13.339Z,13.01
2018-04-16T04:58:13.320Z,12.88
2018-04-16T04:59:13.307Z,12.90
2018-04-16T05:00:13.450Z,12.94
2018-04-16T05:01:13.277Z,12.95
2018-04-16T05:02:13.253Z,12.93
2018-04-16T05:03:13.258Z,12.87
2018-04-16T05:04:13.217Z,12.93
2018-04-16T05:05:13.201Z,12.99
2018-04-16T05:06:13.186Z,12.94
2018-04-16T05:07:13.166Z,12.87
2018-04-16T05:08:13.150Z,12.93
2018-04-16T05:09:13.129Z,12.91
2018-04-16T05:10:13.117Z,12.86
2018-04-16T05:11:13.096Z,12.90
2018-04-16T05:12:13.081Z,12.90
2018-04-16T05:13:13.064Z,12.87
2018-04-16T05:14:13.056Z,12.86
2018-04-16T05:15:13.031Z,12.83
2018-04-16T05:16:13.118Z,12.88
2018-04-16T05:17:13.001Z,12.88
2018-04-16T05:18:12.986Z,12.95
2018-04-16T05:19:12.966Z,12.94
2018-04-16T05:20:12.945Z,12.90
2018-04-16T05:21:12.927Z,12.94
2018-04-16T05:22:12.910Z,12.91
2018-04-16T05:23:12.898Z,12.90
2018-04-16T05:24:12.974Z,12.90
2018-04-16T05:25:12.857Z,12.91
2018-04-16T05:26:12.839Z,12.88
2018-04-16T05:27:12.827Z,12.99
2018-04-16T05:28:12.806Z,12.98
2018-04-16T05:29:12.788Z,13.06
2018-04-16T05:30:12.775Z,12.99
2018-04-16T05:31:12.757Z,12.91
2018-04-16T05:32:12.738Z,12.94
2018-04-16T05:33:12.723Z,12.91
2018-04-16T05:34:12.703Z,12.91
2018-04-16T05:35:12.688Z,13.01
2018-04-16T05:36:12.677Z,13.06
2018-04-16T05:37:12.653Z,12.93
2018-04-16T05:38:12.637Z,13.03
2018-04-16T05:39:12.625Z,13.09
2018-04-16T05:40:12.627Z,13.11
2018-04-16T05:41:12.605Z,13.16
2018-04-16T05:42:12.576Z,13.19
2018-04-16T05:43:12.708Z,13.19
2018-04-16T05:44:12.537Z,13.28
2018-04-16T05:45:12.523Z,13.47
2018-04-16T05:46:12.504Z,13.57
2018-04-16T05:47:12.485Z,13.91
2018-04-16T05:48:12.481Z,14.13
2018-04-16T05:49:12.462Z,14.44
2018-04-16T05:50:12.438Z,14.86
2018-04-16T05:51:12.423Z,15.11
2018-04-16T05:52:12.404Z,15.43
2018-04-16T05:53:12.389Z,15.73
2018-04-16T05:54:12.372Z,15.94
2018-04-16T05:55:12.360Z,16.34
2018-04-16T05:56:12.341Z,16.39
2018-04-16T05:57:12.325Z,16.39
2018-04-16T05:58:12.312Z,16.32
2018-04-16T05:59:12.305Z,16.43
2018-04-16T06:00:12.286Z,16.28
2018-04-16T06:01:12.289Z,16.37
2018-04-16T06:02:12.323Z,16.62
2018-04-16T06:03:12.243Z,16.59
2018-04-16T06:04:12.230Z,16.94
2018-04-16T06:05:12.222Z,17.20
2018-04-16T06:06:12.202Z,17.30
2018-04-16T06:07:12.192Z,17.46
2018-04-16T06:08:12.179Z,17.56
2018-04-16T06:09:12.170Z,17.65
2018-04-16T06:10:12.157Z,17.65
2018-04-16T06:11:12.142Z,17.98
2018-04-16T06:12:12.135Z,17.90
2018-04-16T06:13:12.121Z,17.82
2018-04-16T06:14:12.109Z,17.87
2018-04-16T06:15:12.099Z,17.97
2018-04-16T06:16:12.093Z,18.02
2018-04-16T06:17:12.083Z,18.41
2018-04-16T06:18:12.070Z,18.55
2018-04-16T06:19:12.075Z,18.68
2018-04-16T06:20:12.050Z,18.74
2018-04-16T06:21:12.041Z,18.88
2018-04-16T06:22:12.029Z,18.81
2018-04-16T06:23:12.098Z,18.98
2018-04-16T06:24:12.008Z,19.01
2018-04-16T06:25:11.999Z,19.20
2018-04-16T06:26:12.000Z,19.32
2018-04-16T06:27:12.049Z,19.29
2018-04-16T06:28:11.973Z,19.44
2018-04-16T06:29:11.962Z,19.53
2018-04-16T06:30:11.955Z,19.26
2018-04-16T06:31:11.948Z,19.12
2018-04-16T06:32:11.950Z,18.81
2018-04-16T06:33:11.930Z,18.08
2018-04-16T06:34:11.927Z,17.87
2018-04-16T06:35:11.917Z,17.65
2018-04-16T06:36:11.907Z,17.42
2018-04-16T06:37:11.896Z,17.22
2018-04-16T06:38:11.901Z,17.17
2018-04-16T06:39:11.891Z,17.75
2018-04-16T06:40:11.875Z,18.16
2018-04-16T06:41:11.865Z,18.19
2018-04-16T06:42:11.858Z,17.73
2018-04-16T06:43:11.856Z,17.50
2018-04-16T06:44:11.839Z,17.30
2018-04-16T06:45:11.843Z,17.17
2018-04-16T06:46:11.825Z,17.20
2018-04-16T06:47:11.813Z,17.32
2018-04-16T06:48:11.814Z,17.23
2018-04-16T06:49:11.794Z,17.16
2018-04-16T06:50:11.787Z,17.07
2018-04-16T06:51:11.773Z,17.04
2018-04-16T06:52:11.777Z,16.98
2018-04-16T06:53:11.815Z,17.19
2018-04-16T06:54:11.756Z,17.20
2018-04-16T06:55:11.887Z,17.27
2018-04-16T06:56:11.731Z,17.31
2018-04-16T06:57:11.716Z,17.39
2018-04-16T06:58:11.710Z,17.38
2018-04-16T06:59:11.697Z,17.44
2018-04-16T07:00:11.697Z,17.46
2018-04-16T07:01:11.678Z,17.47
2018-04-16T07:02:11.676Z,17.53
2018-04-16T07:03:11.726Z,17.75
2018-04-16T07:04:11.680Z,17.78
2018-04-16T07:05:11.642Z,17.90
2018-04-16T07:06:11.624Z,18.08
2018-04-16T07:07:11.649Z,18.24
2018-04-16T07:08:11.606Z,18.48
2018-04-16T07:09:11.596Z,18.45
2018-04-16T07:10:11.640Z,18.64
2018-04-16T07:11:11.584Z,18.66
2018-04-16T07:12:11.567Z,18.76
2018-04-16T07:13:11.553Z,18.53
2018-04-16T07:14:11.545Z,18.46
2018-04-16T07:15:11.535Z,18.36
2018-04-16T07:16:11.662Z,18.46
2018-04-16T07:17:11.515Z,18.51
2018-04-16T07:18:11.510Z,18.43
2018-04-16T07:19:11.526Z,18.30
2018-04-16T07:20:11.499Z,18.13
2018-04-16T07:21:11.477Z,18.03
2018-04-16T07:22:11.473Z,17.98
2018-04-16T07:23:11.455Z,17.66
2018-04-16T07:24:11.451Z,17.78
2018-04-16T07:25:11.434Z,17.65
2018-04-16T07:26:11.422Z,17.54
2018-04-16T07:27:11.418Z,17.39
2018-04-16T07:28:11.403Z,17.39
2018-04-16T07:29:11.390Z,17.38
2018-04-16T07:30:11.381Z,17.28
2018-04-16T07:31:11.372Z,17.30
2018-04-16T07:32:11.428Z,17.27
2018-04-16T07:33:11.350Z,17.31
2018-04-16T07:34:11.338Z,17.31
2018-04-16T07:35:11.330Z,17.38
2018-04-16T07:36:11.322Z,17.37
2018-04-16T07:37:11.313Z,17.47
2018-04-16T07:38:11.299Z,17.28
2018-04-16T07:39:11.286Z,17.19
2018-04-16T07:40:11.274Z,17.53
2018-04-16T07:41:11.261Z,17.94
2018-04-16T07:42:11.252Z,18.66
2018-04-16T07:43:11.241Z,19.16
2018-04-16T07:44:11.248Z,19.20
2018-04-16T07:45:11.228Z,19.30
2018-04-16T07:46:11.207Z,19.47
2018-04-16T07:47:11.206Z,19.71
2018-04-16T07:48:11.212Z,19.70
2018-04-16T07:49:11.176Z,19.72
2018-04-16T07:50:11.178Z,19.75
2018-04-16T07:51:11.161Z,19.62
2018-04-16T07:52:11.151Z,19.19
2018-04-16T07:53:11.138Z,18.88
2018-04-16T07:54:11.137Z,18.45
2018-04-16T07:55:11.119Z,18.26
2018-04-16T07:56:11.111Z,18.63
2018-04-16T07:57:11.128Z,18.74
2018-04-16T07:58:11.094Z,18.76
2018-04-16T07:59:11.090Z,18.53
2018-04-16T08:00:11.092Z,18.49
2018-04-16T08:01:11.066Z,18.58
2018-04-16T08:02:11.056Z,18.79
2018-04-16T08:03:11.047Z,19.22
2018-04-16T08:04:11.036Z,19.27
2018-04-16T08:05:11.021Z,19.44
2018-04-16T08:06:11.120Z,19.32
2018-04-16T08:07:11.013Z,19.26
2018-04-16T08:08:10.995Z,19.27
2018-04-16T08:09:11.025Z,19.12
2018-04-16T08:10:10.985Z,19.34
2018-04-16T08:11:10.978Z,19.85
2018-04-16T08:12:10.962Z,20.03
2018-04-16T08:13:10.954Z,20.33
2018-04-16T08:14:10.949Z,20.73
2018-04-16T08:15:10.939Z,20.95
2018-04-16T08:16:10.938Z,20.58
2018-04-16T08:17:10.924Z,20.26
2018-04-16T08:18:10.918Z,20.39
2018-04-16T08:19:10.905Z,20.52
2018-04-16T08:20:10.903Z,20.55
2018-04-16T08:21:10.893Z,20.53
2018-04-16T08:22:10.892Z,20.27
2018-04-16T08:23:10.877Z,20.18
2018-04-16T08:24:10.879Z,20.17
2018-04-16T08:25:10.867Z,20.00
2018-04-16T08:26:10.857Z,19.94
2018-04-16T08:27:10.852Z,19.81
2018-04-16T08:28:10.845Z,20.03
2018-04-16T08:29:10.832Z,20.24
2018-04-16T08:30:10.827Z,20.33
2018-04-16T08:31:10.822Z,20.75
2018-04-16T08:32:10.815Z,21.14
2018-04-16T08:33:10.809Z,20.66
2018-04-16T08:34:10.802Z,20.68
2018-04-16T08:35:10.797Z,20.36
2018-04-16T08:36:10.793Z,20.32
2018-04-16T08:37:10.785Z,20.33
2018-04-16T08:38:10.828Z,20.33
2018-04-16T08:39:10.770Z,20.07
2018-04-16T08:40:10.771Z,19.93
2018-04-16T08:41:10.775Z,20.08
2018-04-16T08:42:10.763Z,20.24
2018-04-16T08:43:10.745Z,20.30
2018-04-16T08:44:10.741Z,20.48
2018-04-16T08:45:10.751Z,20.73
2018-04-16T08:46:10.731Z,20.42
2018-04-16T08:47:10.720Z,20.00
2018-04-16T08:48:10.716Z,20.12
2018-04-16T08:49:10.713Z,20.04
2018-04-16T08:50:10.702Z,20.08
2018-04-16T08:51:10.818Z,20.21
2018-04-16T08:52:10.697Z,20.26
2018-04-16T08:53:10.684Z,20.40
2018-04-16T08:54:10.680Z,20.55
2018-04-16T08:55:10.672Z,20.66
2018-04-16T08:56:10.685Z,21.17
2018-04-16T08:57:10.660Z,21.25
2018-04-16T08:58:10.655Z,21.51
2018-04-16T08:59:10.702Z,21.41
2018-04-16T09:00:10.651Z,21.72
2018-04-16T09:01:10.651Z,21.20
2018-04-16T09:02:10.631Z,20.92
2018-04-16T09:03:10.644Z,21.40
2018-04-16T09:04:10.623Z,21.22
2018-04-16T09:05:10.618Z,21.04
2018-04-16T09:06:10.618Z,20.80
2018-04-16T09:07:10.604Z,20.58
2018-04-16T09:08:10.608Z,20.73
2018-04-16T09:09:10.602Z,20.37
2018-04-16T09:10:10.603Z,20.21
2018-04-16T09:11:10.629Z,19.79
2018-04-16T09:12:10.579Z,20.11
2018-04-16T09:13:10.574Z,20.42
2018-04-16T09:14:10.563Z,20.39
2018-04-16T09:15:10.563Z,20.30
2018-04-16T09:16:10.552Z,20.95
2018-04-16T09:17:10.547Z,21.33
2018-04-16T09:18:10.542Z,21.43
2018-04-16T09:19:10.538Z,20.96
2018-04-16T09:20:10.528Z,20.89
2018-04-16T09:21:10.530Z,21.13
2018-04-16T09:22:10.517Z,21.38
2018-04-16T09:23:10.522Z,21.44
2018-04-16T09:24:10.508Z,21.07
2018-04-16T09:25:10.514Z,21.15
2018-04-16T09:26:10.497Z,21.50
2018-04-16T09:27:10.489Z,21.66
2018-04-16T09:28:10.487Z,21.59
2018-04-16T09:29:10.495Z,21.44
2018-04-16T09:30:10.481Z,21.11
2018-04-16T09:31:10.477Z,21.00
2018-04-16T09:32:10.500Z,21.11
2018-04-16T09:33:10.458Z,21.05
2018-04-16T09:34:10.457Z,21.35
2018-04-16T09:35:10.456Z,21.35
2018-04-16T09:36:10.467Z,21.11
2018-04-16T09:37:10.446Z,21.19
2018-04-16T09:38:10.468Z,21.43
2018-04-16T09:39:10.428Z,21.51
2018-04-16T09:40:10.426Z,21.25
2018-04-16T09:41:10.417Z,20.93
2018-04-16T09:42:10.414Z,21.01
2018-04-16T09:43:10.416Z,20.90
2018-04-16T09:44:10.401Z,20.70
2018-04-16T09:45:10.554Z,20.74
2018-04-16T09:46:10.399Z,20.89
2018-04-16T09:47:10.387Z,20.96
2018-04-16T09:48:10.380Z,20.90
2018-04-16T09:49:10.375Z,21.00
2018-04-16T09:50:10.366Z,21.33
2018-04-16T09:51:10.365Z,21.60
2018-04-16T09:52:10.357Z,21.60
2018-04-16T09:53:10.350Z,21.70
2018-04-16T09:54:10.352Z,21.80
2018-04-16T09:55:10.340Z,22.21
2018-04-16T09:56:10.337Z,22.44
2018-04-16T09:57:10.333Z,22.46
2018-04-16T09:58:10.514Z,22.58
2018-04-16T09:59:10.324Z,22.49
2018-04-16T10:00:10.319Z,22.19
2018-04-16T10:01:10.375Z,22.00
2018-04-16T10:02:10.314Z,21.60
2018-04-16T10:03:10.310Z,21.83
2018-04-16T10:04:10.311Z,21.84
2018-04-16T10:05:10.317Z,21.58
2018-04-16T10:06:10.298Z,21.53
2018-04-16T10:07:10.293Z,21.59
2018-04-16T10:08:10.293Z,21.59
2018-04-16T10:09:10.286Z,21.50
2018-04-16T10:10:10.304Z,21.23
2018-04-16T10:11:10.278Z,21.77
2018-04-16T10:12:10.282Z,22.49
2018-04-16T10:13:10.278Z,22.71
2018-04-16T10:14:10.265Z,22.81
2018-04-16T10:15:10.274Z,22.31
2018-04-16T10:16:10.263Z,22.25
2018-04-16T10:17:10.256Z,21.78
2018-04-16T10:18:10.253Z,21.58
2018-04-16T10:19:10.316Z,21.51
2018-04-16T10:20:10.244Z,21.19
2018-04-16T10:21:10.242Z,21.14
2018-04-16T10:22:10.237Z,20.88
2018-04-16T10:23:10.240Z,20.86
2018-04-16T10:24:10.226Z,21.59
2018-04-16T10:25:10.221Z,22.14
2018-04-16T10:26:10.227Z,22.46
2018-04-16T10:27:10.214Z,21.99
2018-04-16T10:28:10.210Z,21.63
2018-04-16T10:29:10.230Z,21.92
2018-04-16T10:30:10.206Z,21.58
2018-04-16T10:31:10.196Z,21.25
2018-04-16T10:32:10.292Z,22.06
2018-04-16T10:33:10.191Z,22.14
2018-04-16T10:34:10.211Z,23.01
2018-04-16T10:35:10.186Z,22.67
2018-04-16T10:36:10.176Z,21.96
2018-04-16T10:37:10.207Z,21.56
2018-04-16T10:38:10.176Z,22.14
2018-04-16T10:39:10.163Z,22.44
2018-04-16T10:40:10.160Z,22.80
2018-04-16T10:41:10.165Z,23.39
2018-04-16T10:42:10.159Z,23.74
2018-04-16T10:43:10.154Z,23.92
2018-04-16T10:44:10.142Z,24.11
2018-04-16T10:45:10.171Z,23.81
2018-04-16T10:46:10.164Z,23.11
2018-04-16T10:47:10.135Z,22.81
2018-04-16T10:48:10.142Z,22.16
2018-04-16T10:49:10.138Z,21.77
2018-04-16T10:50:10.138Z,21.43
2018-04-16T10:51:10.123Z,21.83
2018-04-16T10:52:10.126Z,22.31
2018-04-16T10:53:10.119Z,22.70
2018-04-16T10:54:10.132Z,23.13
2018-04-16T10:55:10.233Z,22.81
2018-04-16T10:56:10.118Z,22.81
2018-04-16T10:57:10.108Z,22.73
2018-04-16T10:58:10.202Z,22.95
2018-04-16T10:59:10.099Z,23.21
2018-04-16T11:00:10.099Z,22.84
2018-04-16T11:01:10.099Z,23.04
2018-04-16T11:02:10.094Z,23.16
2018-04-16T11:03:10.095Z,23.16
2018-04-16T11:04:10.107Z,22.83
2018-04-16T11:05:10.092Z,22.98
2018-04-16T11:06:10.085Z,23.55
2018-04-16T11:07:10.090Z,23.34
2018-04-16T11:08:10.079Z,23.54
2018-04-16T11:09:10.077Z,23.94
2018-04-16T11:10:10.076Z,23.91
2018-04-16T11:11:10.077Z,24.04
2018-04-16T11:12:10.073Z,23.73
2018-04-16T11:13:10.118Z,23.07
2018-04-16T11:14:10.068Z,22.91
2018-04-16T11:15:10.079Z,22.86
2018-04-16T11:16:10.086Z,23.29
2018-04-16T11:17:10.064Z,22.78
2018-04-16T11:18:10.066Z,22.28
2018-04-16T11:19:10.086Z,22.91
2018-04-16T11:20:10.060Z,22.49
2018-04-16T11:21:10.062Z,22.10
2018-04-16T11:22:10.058Z,21.99
2018-04-16T11:23:10.065Z,21.80
2018-04-16T11:24:10.057Z,21.83
2018-04-16T11:25:10.055Z,21.78
2018-04-16T11:26:10.207Z,21.40
2018-04-16T11:27:10.059Z,21.29
2018-04-16T11:28:10.039Z,21.41
2018-04-16T11:29:10.053Z,21.69
2018-04-16T11:30:10.066Z,21.63
2018-04-16T11:31:10.035Z,21.94
2018-04-16T11:32:10.038Z,21.85
2018-04-16T11:33:10.028Z,21.45
2018-04-16T11:34:10.014Z,21.14
2018-04-16T11:35:10.035Z,20.74
2018-04-16T11:36:10.006Z,20.67
2018-04-16T11:37:10.002Z,20.55
2018-04-16T11:38:09.997Z,20.59
2018-04-16T11:39:09.993Z,20.37
2018-04-16T11:40:09.986Z,21.35
2018-04-16T11:41:09.986Z,22.22
2018-04-16T11:42:10.028Z,22.70
2018-04-16T11:43:09.972Z,23.13
2018-04-16T11:44:09.974Z,23.47
2018-04-16T11:45:09.963Z,23.76
2018-04-16T11:46:09.958Z,23.55
2018-04-16T11:47:09.953Z,23.63
2018-04-16T11:48:09.949Z,23.04
2018-04-16T11:49:09.950Z,22.70
2018-04-16T11:50:09.943Z,22.49
2018-04-16T11:51:09.950Z,22.26
2018-04-16T11:52:09.933Z,21.84
2018-04-16T11:53:09.936Z,21.59
2018-04-16T11:54:09.933Z,22.25
2018-04-16T11:55:10.052Z,21.63
2018-04-16T11:56:09.914Z,21.60
2018-04-16T11:57:09.910Z,21.40
2018-04-16T11:58:09.913Z,21.11
2018-04-16T11:59:09.898Z,21.66
2018-04-16T12:00:09.892Z,22.15
2018-04-16T12:01:09.884Z,21.74
2018-04-16T12:02:09.899Z,21.75
2018-04-16T12:03:09.902Z,22.00
2018-04-16T12:04:09.878Z,22.41
2018-04-16T12:05:09.870Z,22.46
2018-04-16T12:06:09.855Z,22.33
2018-04-16T12:07:09.850Z,22.22
2018-04-16T12:08:09.851Z,22.12
2018-04-16T12:09:09.835Z,22.00
2018-04-16T12:10:09.838Z,21.75
2018-04-16T12:11:09.825Z,21.60
2018-04-16T12:12:09.818Z,21.66
2018-04-16T12:13:09.832Z,21.65
2018-04-16T12:14:09.802Z,21.75
2018-04-16T12:15:09.792Z,21.68
2018-04-16T12:16:09.841Z,21.56
2018-04-16T12:17:09.779Z,21.60
2018-04-16T12:18:09.780Z,21.65
2018-04-16T12:19:09.765Z,21.75
2018-04-16T12:20:09.760Z,21.68
2018-04-16T12:21:09.751Z,21.54
2018-04-16T12:22:09.740Z,21.44
2018-04-16T12:23:09.735Z,21.38
2018-04-16T12:24:09.728Z,21.53
2018-04-16T12:25:09.719Z,21.58
2018-04-16T12:26:09.722Z,21.37
2018-04-16T12:27:09.700Z,21.51
2018-04-16T12:28:09.693Z,21.45
2018-04-16T12:29:09.744Z,21.54
2018-04-16T12:30:09.678Z,21.54
2018-04-16T12:31:09.673Z,21.48
2018-04-16T12:32:09.662Z,21.53
2018-04-16T12:33:09.679Z,21.53
2018-04-16T12:34:09.684Z,21.63
2018-04-16T12:35:09.639Z,21.65
2018-04-16T12:36:09.638Z,21.69
2018-04-16T12:37:09.627Z,21.96
2018-04-16T12:38:09.613Z,22.22
2018-04-16T12:39:09.626Z,22.37
2018-04-16T12:40:09.595Z,22.40
2018-04-16T12:41:09.590Z,22.18
2018-04-16T12:42:09.660Z,21.56
2018-04-16T12:43:09.578Z,21.51
2018-04-16T12:44:09.568Z,21.48
2018-04-16T12:45:09.564Z,21.81
2018-04-16T12:46:09.557Z,21.74
2018-04-16T12:47:09.541Z,21.92
2018-04-16T12:48:09.543Z,21.99
2018-04-16T12:49:09.535Z,22.30
2018-04-16T12:50:09.520Z,22.58
2018-04-16T12:51:09.516Z,22.61
2018-04-16T12:52:09.508Z,22.58